Smooth Rock Falls, Canada
Current Conditions -  °F | °C
As of 3:00 PM on Saturday 25 Oct 2014 (Local Time) from CYYU Reporting Station
Light Rain Light Rain  
Wind Chill: 34°   Ceiling: 900
Heat Index: 43°   Visibility: 4mi
Dew Point: 39°   Wind: 21mph
Humidity: 87%   Direction: 310°NW
Pressure: 29.38"   Gusts: 35mph
Location:  49.28°N, 81.63°W
Report Text: CYYU 251900Z 31018G30KT 4SM -RA BR OVC009 06/04 A2938 RMK SC8 SLP956
Loading
Personal Weather Stations






























Interactive Weather Map
Tropical Storm Tracking
New forecast layout! Learn more

10-Day Weather Forecast

Advertisements
Track Severe Weather on mobile